sensor_id;sensor_type;location;lat;lon;timestamp;P1;durP1;ratioP1;P2;durP2;ratioP2
1106;SDS011;540;49.448;8.612;2022-07-19T00:00:16;4.13;;;2.22;;
1106;SDS011;540;49.448;8.612;2022-07-19T00:02:45;2.58;;;2.10;;
1106;SDS011;540;49.448;8.612;2022-07-19T00:05:14;3.08;;;2.30;;
1106;SDS011;540;49.448;8.612;2022-07-19T00:07:42;6.22;;;2.33;;
1106;SDS011;540;49.448;8.612;2022-07-19T00:10:12;5.82;;;2.70;;
1106;SDS011;540;49.448;8.612;2022-07-19T00:12:43;8.43;;;2.83;;
1106;SDS011;540;49.448;8.612;2022-07-19T00:15:12;8.02;;;2.72;;
1106;SDS011;540;49.448;8.612;2022-07-19T00:17:42;5.60;;;2.42;;
1106;SDS011;540;49.448;8.612;2022-07-19T00:20:13;7.03;;;2.60;;
1106;SDS011;540;49.448;8.612;2022-07-19T00:22:43;6.03;;;2.60;;
1106;SDS011;540;49.448;8.612;2022-07-19T00:25:10;4.63;;;3.10;;
1106;SDS011;540;49.448;8.612;2022-07-19T00:27:39;10.30;;;2.97;;
1106;SDS011;540;49.448;8.612;2022-07-19T00:30:09;3.75;;;2.38;;
1106;SDS011;540;49.448;8.612;2022-07-19T00:32:37;7.28;;;2.85;;
1106;SDS011;540;49.448;8.612;2022-07-19T00:35:05;11.02;;;3.05;;
1106;SDS011;540;49.448;8.612;2022-07-19T00:37:33;8.35;;;2.60;;
1106;SDS011;540;49.448;8.612;2022-07-19T00:40:05;4.00;;;2.40;;
1106;SDS011;540;49.448;8.612;2022-07-19T00:42:34;5.60;;;2.90;;
1106;SDS011;540;49.448;8.612;2022-07-19T00:45:03;5.05;;;2.55;;
1106;SDS011;540;49.448;8.612;2022-07-19T00:47:33;5.35;;;2.88;;
1106;SDS011;540;49.448;8.612;2022-07-19T00:50:01;6.28;;;3.00;;
1106;SDS011;540;49.448;8.612;2022-07-19T00:52:29;9.45;;;2.60;;
1106;SDS011;540;49.448;8.612;2022-07-19T00:54:59;5.57;;;3.22;;
1106;SDS011;540;49.448;8.612;2022-07-19T00:57:28;7.25;;;2.75;;
1106;SDS011;540;49.448;8.612;2022-07-19T00:59:58;8.48;;;3.38;;
1106;SDS011;540;49.448;8.612;2022-07-19T01:02:26;12.02;;;3.40;;
1106;SDS011;540;49.448;8.612;2022-07-19T01:04:58;6.57;;;2.88;;
1106;SDS011;540;49.448;8.612;2022-07-19T01:07:26;5.80;;;3.13;;
1106;SDS011;540;49.448;8.612;2022-07-19T01:09:54;7.00;;;3.42;;
1106;SDS011;540;49.448;8.612;2022-07-19T01:12:22;6.65;;;3.60;;
1106;SDS011;540;49.448;8.612;2022-07-19T01:14:55;10.90;;;4.07;;
1106;SDS011;540;49.448;8.612;2022-07-19T01:17:23;13.43;;;4.88;;
1106;SDS011;540;49.448;8.612;2022-07-19T01:19:51;7.95;;;3.42;;
1106;SDS011;540;49.448;8.612;2022-07-19T01:22:20;11.15;;;4.18;;
1106;SDS011;540;49.448;8.612;2022-07-19T01:24:49;12.07;;;4.68;;
1106;SDS011;540;49.448;8.612;2022-07-19T01:27:16;9.68;;;4.32;;
1106;SDS011;540;49.448;8.612;2022-07-19T01:29:44;9.23;;;3.70;;
1106;SDS011;540;49.448;8.612;2022-07-19T01:32:12;6.78;;;3.85;;
1106;SDS011;540;49.448;8.612;2022-07-19T01:34:40;6.75;;;3.30;;
1106;SDS011;540;49.448;8.612;2022-07-19T01:37:07;9.32;;;3.00;;
1106;SDS011;540;49.448;8.612;2022-07-19T01:39:37;7.68;;;3.10;;
1106;SDS011;540;49.448;8.612;2022-07-19T01:42:04;6.38;;;3.17;;
1106;SDS011;540;49.448;8.612;2022-07-19T01:44:32;7.18;;;3.40;;
1106;SDS011;540;49.448;8.612;2022-07-19T01:47:00;7.57;;;3.38;;
1106;SDS011;540;49.448;8.612;2022-07-19T01:49:28;11.45;;;3.30;;
1106;SDS011;540;49.448;8.612;2022-07-19T01:51:56;6.90;;;3.47;;
1106;SDS011;540;49.448;8.612;2022-07-19T01:54:23;8.07;;;3.60;;
1106;SDS011;540;49.448;8.612;2022-07-19T01:56:52;12.43;;;3.50;;
1106;SDS011;540;49.448;8.612;2022-07-19T01:59:20;6.18;;;3.88;;
1106;SDS011;540;49.448;8.612;2022-07-19T02:01:48;10.48;;;3.47;;
1106;SDS011;540;49.448;8.612;2022-07-19T02:04:16;7.32;;;4.03;;
1106;SDS011;540;49.448;8.612;2022-07-19T02:06:45;9.68;;;3.70;;
1106;SDS011;540;49.448;8.612;2022-07-19T02:09:13;5.07;;;2.85;;
1106;SDS011;540;49.448;8.612;2022-07-19T02:11:41;5.88;;;3.20;;
1106;SDS011;540;49.448;8.612;2022-07-19T02:14:10;7.93;;;3.50;;
1106;SDS011;540;49.448;8.612;2022-07-19T02:16:38;11.18;;;3.13;;
1106;SDS011;540;49.448;8.612;2022-07-19T02:19:07;6.72;;;3.33;;
1106;SDS011;540;49.448;8.612;2022-07-19T02:21:35;7.75;;;3.00;;
1106;SDS011;540;49.448;8.612;2022-07-19T02:24:04;6.10;;;3.47;;
1106;SDS011;540;49.448;8.612;2022-07-19T02:26:33;6.50;;;2.75;;
1106;SDS011;540;49.448;8.612;2022-07-19T02:29:04;9.48;;;3.42;;
1106;SDS011;540;49.448;8.612;2022-07-19T02:31:34;8.50;;;3.25;;
1106;SDS011;540;49.448;8.612;2022-07-19T02:34:03;11.32;;;3.22;;
1106;SDS011;540;49.448;8.612;2022-07-19T02:36:31;6.70;;;3.42;;
1106;SDS011;540;49.448;8.612;2022-07-19T02:38:59;11.48;;;3.75;;
1106;SDS011;540;49.448;8.612;2022-07-19T02:41:27;6.10;;;3.08;;
1106;SDS011;540;49.448;8.612;2022-07-19T02:43:54;8.77;;;3.17;;
1106;SDS011;540;49.448;8.612;2022-07-19T02:46:22;8.60;;;3.47;;
1106;SDS011;540;49.448;8.612;2022-07-19T02:48:51;9.18;;;3.10;;
1106;SDS011;540;49.448;8.612;2022-07-19T02:51:19;7.78;;;3.47;;
1106;SDS011;540;49.448;8.612;2022-07-19T02:53:47;7.55;;;3.40;;
1106;SDS011;540;49.448;8.612;2022-07-19T02:56:15;9.88;;;3.45;;
1106;SDS011;540;49.448;8.612;2022-07-19T02:58:43;7.35;;;3.22;;
1106;SDS011;540;49.448;8.612;2022-07-19T03:01:10;7.32;;;3.15;;
1106;SDS011;540;49.448;8.612;2022-07-19T03:03:38;10.68;;;3.83;;
1106;SDS011;540;49.448;8.612;2022-07-19T03:06:15;6.97;;;3.40;;
1106;SDS011;540;49.448;8.612;2022-07-19T03:08:45;6.82;;;3.78;;
1106;SDS011;540;49.448;8.612;2022-07-19T03:11:13;9.18;;;3.55;;
1106;SDS011;540;49.448;8.612;2022-07-19T03:13:41;9.90;;;3.58;;
1106;SDS011;540;49.448;8.612;2022-07-19T03:16:09;5.75;;;3.13;;
1106;SDS011;540;49.448;8.612;2022-07-19T03:18:37;7.40;;;3.33;;
1106;SDS011;540;49.448;8.612;2022-07-19T03:21:05;11.57;;;3.92;;
1106;SDS011;540;49.448;8.612;2022-07-19T03:23:35;6.97;;;3.53;;
1106;SDS011;540;49.448;8.612;2022-07-19T03:26:03;10.93;;;4.18;;
1106;SDS011;540;49.448;8.612;2022-07-19T03:28:32;5.70;;;3.70;;
1106;SDS011;540;49.448;8.612;2022-07-19T03:31:00;6.78;;;4.03;;
1106;SDS011;540;49.448;8.612;2022-07-19T03:33:28;10.93;;;4.07;;
1106;SDS011;540;49.448;8.612;2022-07-19T03:35:56;13.43;;;4.50;;
1106;SDS011;540;49.448;8.612;2022-07-19T03:38:24;9.02;;;4.18;;
1106;SDS011;540;49.448;8.612;2022-07-19T03:40:53;10.27;;;4.53;;
1106;SDS011;540;49.448;8.612;2022-07-19T03:43:21;11.13;;;4.25;;
1106;SDS011;540;49.448;8.612;2022-07-19T03:45:49;9.23;;;3.55;;
1106;SDS011;540;49.448;8.612;2022-07-19T03:48:17;6.30;;;3.50;;
1106;SDS011;540;49.448;8.612;2022-07-19T03:50:47;7.13;;;3.75;;
1106;SDS011;540;49.448;8.612;2022-07-19T03:53:15;10.90;;;4.50;;
1106;SDS011;540;49.448;8.612;2022-07-19T03:55:42;13.77;;;5.18;;
1106;SDS011;540;49.448;8.612;2022-07-19T03:58:12;11.18;;;4.07;;
1106;SDS011;540;49.448;8.612;2022-07-19T04:00:39;8.77;;;3.75;;
1106;SDS011;540;49.448;8.612;2022-07-19T04:03:07;11.85;;;3.70;;
1106;SDS011;540;49.448;8.612;2022-07-19T04:05:35;9.88;;;3.92;;
1106;SDS011;540;49.448;8.612;2022-07-19T04:08:03;12.27;;;3.95;;
1106;SDS011;540;49.448;8.612;2022-07-19T04:10:31;8.98;;;3.67;;
1106;SDS011;540;49.448;8.612;2022-07-19T04:12:59;10.25;;;3.97;;
1106;SDS011;540;49.448;8.612;2022-07-19T04:15:28;11.38;;;4.15;;
1106;SDS011;540;49.448;8.612;2022-07-19T04:17:56;12.18;;;3.55;;
1106;SDS011;540;49.448;8.612;2022-07-19T04:20:24;7.18;;;3.70;;
1106;SDS011;540;49.448;8.612;2022-07-19T04:22:51;7.53;;;3.75;;
1106;SDS011;540;49.448;8.612;2022-07-19T04:25:20;7.68;;;3.58;;
1106;SDS011;540;49.448;8.612;2022-07-19T04:27:48;8.25;;;3.65;;
1106;SDS011;540;49.448;8.612;2022-07-19T04:30:16;9.65;;;3.60;;
1106;SDS011;540;49.448;8.612;2022-07-19T04:32:45;6.05;;;3.88;;
1106;SDS011;540;49.448;8.612;2022-07-19T04:35:13;11.27;;;3.58;;
1106;SDS011;540;49.448;8.612;2022-07-19T04:37:42;14.27;;;4.30;;
1106;SDS011;540;49.448;8.612;2022-07-19T04:40:10;9.23;;;3.88;;
1106;SDS011;540;49.448;8.612;2022-07-19T04:42:38;15.25;;;4.18;;
1106;SDS011;540;49.448;8.612;2022-07-19T04:45:06;16.13;;;4.32;;
1106;SDS011;540;49.448;8.612;2022-07-19T04:47:34;14.13;;;3.90;;
1106;SDS011;540;49.448;8.612;2022-07-19T04:50:04;8.52;;;4.32;;
1106;SDS011;540;49.448;8.612;2022-07-19T04:52:32;10.98;;;4.68;;
1106;SDS011;540;49.448;8.612;2022-07-19T04:55:00;11.65;;;4.53;;
1106;SDS011;540;49.448;8.612;2022-07-19T04:57:28;10.43;;;4.40;;
1106;SDS011;540;49.448;8.612;2022-07-19T04:59:56;7.22;;;3.67;;
1106;SDS011;540;49.448;8.612;2022-07-19T05:02:23;11.05;;;3.60;;
1106;SDS011;540;49.448;8.612;2022-07-19T05:04:51;7.28;;;4.43;;
1106;SDS011;540;49.448;8.612;2022-07-19T05:07:21;7.53;;;3.88;;
1106;SDS011;540;49.448;8.612;2022-07-19T05:09:49;12.35;;;4.20;;
1106;SDS011;540;49.448;8.612;2022-07-19T05:12:23;13.45;;;5.47;;
1106;SDS011;540;49.448;8.612;2022-07-19T05:14:51;5.95;;;4.30;;
1106;SDS011;540;49.448;8.612;2022-07-19T05:17:19;10.20;;;4.43;;
1106;SDS011;540;49.448;8.612;2022-07-19T05:19:47;11.25;;;4.40;;
1106;SDS011;540;49.448;8.612;2022-07-19T05:22:15;6.35;;;4.75;;
1106;SDS011;540;49.448;8.612;2022-07-19T05:24:44;11.57;;;4.32;;
1106;SDS011;540;49.448;8.612;2022-07-19T05:27:12;7.78;;;4.57;;
1106;SDS011;540;49.448;8.612;2022-07-19T05:29:40;11.90;;;4.63;;
1106;SDS011;540;49.448;8.612;2022-07-19T05:32:08;15.02;;;4.15;;
1106;SDS011;540;49.448;8.612;2022-07-19T05:34:36;10.05;;;5.05;;
1106;SDS011;540;49.448;8.612;2022-07-19T05:37:04;10.60;;;4.43;;
1106;SDS011;540;49.448;8.612;2022-07-19T05:39:32;7.50;;;4.63;;
1106;SDS011;540;49.448;8.612;2022-07-19T05:42:01;15.27;;;5.22;;
1106;SDS011;540;49.448;8.612;2022-07-19T05:44:29;11.02;;;4.18;;
1106;SDS011;540;49.448;8.612;2022-07-19T05:46:57;11.38;;;3.92;;
1106;SDS011;540;49.448;8.612;2022-07-19T05:49:25;7.00;;;4.32;;
1106;SDS011;540;49.448;8.612;2022-07-19T05:51:53;8.27;;;4.55;;
1106;SDS011;540;49.448;8.612;2022-07-19T05:54:21;7.32;;;4.50;;
1106;SDS011;540;49.448;8.612;2022-07-19T05:56:50;8.68;;;4.85;;
1106;SDS011;540;49.448;8.612;2022-07-19T05:59:20;9.20;;;4.55;;
1106;SDS011;540;49.448;8.612;2022-07-19T06:01:48;12.23;;;4.72;;
1106;SDS011;540;49.448;8.612;2022-07-19T06:04:16;6.28;;;4.70;;
1106;SDS011;540;49.448;8.612;2022-07-19T06:06:44;10.57;;;4.93;;
1106;SDS011;540;49.448;8.612;2022-07-19T06:09:12;8.57;;;4.70;;
1106;SDS011;540;49.448;8.612;2022-07-19T06:11:42;9.02;;;4.35;;
1106;SDS011;540;49.448;8.612;2022-07-19T06:14:09;8.85;;;4.05;;
1106;SDS011;540;49.448;8.612;2022-07-19T06:16:39;10.80;;;3.80;;
1106;SDS011;540;49.448;8.612;2022-07-19T06:19:07;11.32;;;3.90;;
1106;SDS011;540;49.448;8.612;2022-07-19T06:21:36;7.82;;;3.75;;
1106;SDS011;540;49.448;8.612;2022-07-19T06:24:04;8.20;;;3.30;;
1106;SDS011;540;49.448;8.612;2022-07-19T06:26:32;7.47;;;3.53;;
1106;SDS011;540;49.448;8.612;2022-07-19T06:29:00;7.32;;;3.70;;
1106;SDS011;540;49.448;8.612;2022-07-19T06:31:30;5.97;;;3.40;;
1106;SDS011;540;49.448;8.612;2022-07-19T06:33:59;7.65;;;3.60;;
1106;SDS011;540;49.448;8.612;2022-07-19T06:36:27;7.45;;;3.45;;
1106;SDS011;540;49.448;8.612;2022-07-19T06:38:55;7.78;;;3.63;;
1106;SDS011;540;49.448;8.612;2022-07-19T06:41:23;8.60;;;3.25;;
1106;SDS011;540;49.448;8.612;2022-07-19T06:43:56;9.23;;;3.00;;
1106;SDS011;540;49.448;8.612;2022-07-19T06:46:24;7.88;;;3.28;;
1106;SDS011;540;49.448;8.612;2022-07-19T06:48:51;8.73;;;3.35;;
1106;SDS011;540;49.448;8.612;2022-07-19T06:51:21;9.02;;;3.05;;
1106;SDS011;540;49.448;8.612;2022-07-19T06:53:49;10.13;;;3.40;;
1106;SDS011;540;49.448;8.612;2022-07-19T06:56:16;13.32;;;3.97;;
1106;SDS011;540;49.448;8.612;2022-07-19T06:58:44;11.05;;;4.10;;
1106;SDS011;540;49.448;8.612;2022-07-19T07:01:12;13.52;;;5.20;;
1106;SDS011;540;49.448;8.612;2022-07-19T07:03:41;11.98;;;5.10;;
1106;SDS011;540;49.448;8.612;2022-07-19T07:06:09;15.07;;;4.90;;
1106;SDS011;540;49.448;8.612;2022-07-19T07:08:38;14.82;;;4.45;;
1106;SDS011;540;49.448;8.612;2022-07-19T07:11:06;9.48;;;4.68;;
1106;SDS011;540;49.448;8.612;2022-07-19T07:13:33;7.57;;;4.00;;
1106;SDS011;540;49.448;8.612;2022-07-19T07:16:02;8.27;;;4.68;;
1106;SDS011;540;49.448;8.612;2022-07-19T07:18:29;7.88;;;3.35;;
1106;SDS011;540;49.448;8.612;2022-07-19T07:20:58;5.93;;;3.63;;
1106;SDS011;540;49.448;8.612;2022-07-19T07:23:25;8.40;;;3.78;;
1106;SDS011;540;49.448;8.612;2022-07-19T07:25:55;14.10;;;4.03;;
1106;SDS011;540;49.448;8.612;2022-07-19T07:28:23;8.75;;;3.83;;
1106;SDS011;540;49.448;8.612;2022-07-19T07:30:51;9.25;;;3.60;;
1106;SDS011;540;49.448;8.612;2022-07-19T07:33:20;6.80;;;3.42;;
1106;SDS011;540;49.448;8.612;2022-07-19T07:35:48;7.57;;;3.78;;
1106;SDS011;540;49.448;8.612;2022-07-19T07:38:15;9.70;;;3.13;;
1106;SDS011;540;49.448;8.612;2022-07-19T07:40:43;13.80;;;3.90;;
1106;SDS011;540;49.448;8.612;2022-07-19T07:43:13;11.90;;;3.33;;
1106;SDS011;540;49.448;8.612;2022-07-19T07:45:42;8.52;;;3.28;;
1106;SDS011;540;49.448;8.612;2022-07-19T07:48:09;5.90;;;2.90;;
1106;SDS011;540;49.448;8.612;2022-07-19T07:50:37;4.68;;;2.63;;
1106;SDS011;540;49.448;8.612;2022-07-19T07:53:05;5.68;;;3.25;;
1106;SDS011;540;49.448;8.612;2022-07-19T07:55:33;9.23;;;5.03;;
1106;SDS011;540;49.448;8.612;2022-07-19T07:58:05;9.18;;;4.00;;
1106;SDS011;540;49.448;8.612;2022-07-19T08:00:35;11.35;;;4.85;;
1106;SDS011;540;49.448;8.612;2022-07-19T08:03:04;7.72;;;2.78;;
1106;SDS011;540;49.448;8.612;2022-07-19T08:05:32;10.88;;;3.35;;
1106;SDS011;540;49.448;8.612;2022-07-19T08:08:00;9.65;;;3.00;;
1106;SDS011;540;49.448;8.612;2022-07-19T08:10:29;9.52;;;3.22;;
1106;SDS011;540;49.448;8.612;2022-07-19T08:12:59;6.40;;;3.30;;
1106;SDS011;540;49.448;8.612;2022-07-19T08:15:34;9.48;;;3.10;;
1106;SDS011;540;49.448;8.612;2022-07-19T08:18:03;7.85;;;3.20;;
1106;SDS011;540;49.448;8.612;2022-07-19T08:20:31;4.93;;;2.33;;
1106;SDS011;540;49.448;8.612;2022-07-19T08:22:59;4.43;;;2.45;;
1106;SDS011;540;49.448;8.612;2022-07-19T08:25:26;6.07;;;3.13;;
1106;SDS011;540;49.448;8.612;2022-07-19T08:27:55;4.35;;;2.80;;
1106;SDS011;540;49.448;8.612;2022-07-19T08:30:22;3.65;;;2.70;;
1106;SDS011;540;49.448;8.612;2022-07-19T08:33:12;5.40;;;3.20;;
1106;SDS011;540;49.448;8.612;2022-07-19T08:35:39;9.88;;;3.00;;
1106;SDS011;540;49.448;8.612;2022-07-19T08:38:07;3.35;;;2.47;;
1106;SDS011;540;49.448;8.612;2022-07-19T08:40:35;4.57;;;3.38;;
1106;SDS011;540;49.448;8.612;2022-07-19T08:43:08;4.90;;;2.78;;
1106;SDS011;540;49.448;8.612;2022-07-19T08:45:37;7.25;;;2.72;;
1106;SDS011;540;49.448;8.612;2022-07-19T08:48:07;5.45;;;2.60;;
1106;SDS011;540;49.448;8.612;2022-07-19T08:50:36;4.53;;;2.80;;
1106;SDS011;540;49.448;8.612;2022-07-19T08:53:06;5.97;;;2.67;;
1106;SDS011;540;49.448;8.612;2022-07-19T08:55:34;8.05;;;2.58;;
1106;SDS011;540;49.448;8.612;2022-07-19T08:58:01;8.15;;;2.63;;
1106;SDS011;540;49.448;8.612;2022-07-19T09:00:29;6.53;;;2.20;;
1106;SDS011;540;49.448;8.612;2022-07-19T09:03:00;3.08;;;2.13;;
1106;SDS011;540;49.448;8.612;2022-07-19T09:05:29;2.70;;;2.13;;
1106;SDS011;540;49.448;8.612;2022-07-19T09:08:08;4.40;;;1.70;;
1106;SDS011;540;49.448;8.612;2022-07-19T09:10:38;3.38;;;2.10;;
1106;SDS011;540;49.448;8.612;2022-07-19T09:13:08;4.28;;;1.92;;
1106;SDS011;540;49.448;8.612;2022-07-19T09:15:41;6.05;;;1.88;;
1106;SDS011;540;49.448;8.612;2022-07-19T09:18:12;3.15;;;1.70;;
1106;SDS011;540;49.448;8.612;2022-07-19T09:20:41;9.55;;;1.95;;
1106;SDS011;540;49.448;8.612;2022-07-19T09:23:11;3.00;;;1.73;;
1106;SDS011;540;49.448;8.612;2022-07-19T09:25:40;7.03;;;2.20;;
1106;SDS011;540;49.448;8.612;2022-07-19T09:28:09;2.95;;;2.00;;
1106;SDS011;540;49.448;8.612;2022-07-19T09:30:38;3.10;;;1.90;;
1106;SDS011;540;49.448;8.612;2022-07-19T09:33:13;2.35;;;2.15;;
1106;SDS011;540;49.448;8.612;2022-07-19T09:35:43;4.18;;;1.92;;
1106;SDS011;540;49.448;8.612;2022-07-19T09:38:26;2.20;;;1.70;;
1106;SDS011;540;49.448;8.612;2022-07-19T09:41:10;2.83;;;1.85;;
1106;SDS011;540;49.448;8.612;2022-07-19T09:43:51;2.15;;;1.67;;
1106;SDS011;540;49.448;8.612;2022-07-19T09:46:29;1.75;;;1.60;;
1106;SDS011;540;49.448;8.612;2022-07-19T09:49:02;3.28;;;1.60;;
1106;SDS011;540;49.448;8.612;2022-07-19T09:51:32;1.70;;;1.40;;
1106;SDS011;540;49.448;8.612;2022-07-19T09:54:03;1.98;;;1.60;;
1106;SDS011;540;49.448;8.612;2022-07-19T09:56:32;3.97;;;1.58;;
1106;SDS011;540;49.448;8.612;2022-07-19T09:59:00;3.22;;;1.60;;
1106;SDS011;540;49.448;8.612;2022-07-19T10:01:28;2.00;;;1.70;;
1106;SDS011;540;49.448;8.612;2022-07-19T10:03:58;3.92;;;1.70;;
1106;SDS011;540;49.448;8.612;2022-07-19T10:06:28;5.63;;;1.73;;
1106;SDS011;540;49.448;8.612;2022-07-19T10:08:57;2.47;;;1.60;;
1106;SDS011;540;49.448;8.612;2022-07-19T10:11:26;6.65;;;1.85;;
1106;SDS011;540;49.448;8.612;2022-07-19T10:13:57;2.08;;;1.60;;
1106;SDS011;540;49.448;8.612;2022-07-19T10:19:15;3.28;;;1.35;;
1106;SDS011;540;49.448;8.612;2022-07-19T10:21:45;1.83;;;1.73;;
1106;SDS011;540;49.448;8.612;2022-07-19T10:24:13;1.88;;;1.45;;
1106;SDS011;540;49.448;8.612;2022-07-19T10:26:43;3.00;;;1.67;;
1106;SDS011;540;49.448;8.612;2022-07-19T10:29:11;1.98;;;1.75;;
1106;SDS011;540;49.448;8.612;2022-07-19T10:31:42;3.60;;;1.73;;
1106;SDS011;540;49.448;8.612;2022-07-19T10:34:11;5.05;;;1.80;;
1106;SDS011;540;49.448;8.612;2022-07-19T10:36:49;4.82;;;1.83;;
1106;SDS011;540;49.448;8.612;2022-07-19T10:39:21;3.85;;;1.55;;
1106;SDS011;540;49.448;8.612;2022-07-19T10:42:16;3.25;;;1.90;;
1106;SDS011;540;49.448;8.612;2022-07-19T10:50:56;3.40;;;1.67;;
1106;SDS011;540;49.448;8.612;2022-07-19T10:56:36;4.57;;;1.70;;
1106;SDS011;540;49.448;8.612;2022-07-19T10:59:33;5.53;;;1.88;;
1106;SDS011;540;49.448;8.612;2022-07-19T11:02:06;4.72;;;1.63;;
1106;SDS011;540;49.448;8.612;2022-07-19T11:04:54;2.30;;;1.63;;
1106;SDS011;540;49.448;8.612;2022-07-19T11:07:23;5.00;;;1.50;;
1106;SDS011;540;49.448;8.612;2022-07-19T11:09:53;4.53;;;1.50;;
1106;SDS011;540;49.448;8.612;2022-07-19T11:12:23;5.25;;;1.90;;
1106;SDS011;540;49.448;8.612;2022-07-19T11:14:54;3.80;;;2.25;;
1106;SDS011;540;49.448;8.612;2022-07-19T11:17:51;3.40;;;2.13;;
1106;SDS011;540;49.448;8.612;2022-07-19T11:20:21;2.22;;;1.60;;
1106;SDS011;540;49.448;8.612;2022-07-19T11:22:50;4.65;;;1.50;;
1106;SDS011;540;49.448;8.612;2022-07-19T11:25:23;6.80;;;2.03;;
1106;SDS011;540;49.448;8.612;2022-07-19T11:27:53;3.15;;;1.70;;
1106;SDS011;540;49.448;8.612;2022-07-19T11:30:23;5.97;;;1.95;;
1106;SDS011;540;49.448;8.612;2022-07-19T11:32:52;4.55;;;1.90;;
1106;SDS011;540;49.448;8.612;2022-07-19T11:35:21;1.90;;;1.65;;
1106;SDS011;540;49.448;8.612;2022-07-19T11:37:50;2.78;;;1.80;;
1106;SDS011;540;49.448;8.612;2022-07-19T11:40:20;2.65;;;1.60;;
1106;SDS011;540;49.448;8.612;2022-07-19T11:42:49;3.30;;;1.95;;
1106;SDS011;540;49.448;8.612;2022-07-19T11:45:42;6.47;;;1.88;;
1106;SDS011;540;49.448;8.612;2022-07-19T11:48:11;6.68;;;1.90;;
1106;SDS011;540;49.448;8.612;2022-07-19T11:50:56;4.97;;;1.83;;
1106;SDS011;540;49.448;8.612;2022-07-19T11:53:26;3.90;;;1.67;;
1106;SDS011;540;49.448;8.612;2022-07-19T11:55:53;3.83;;;1.83;;
1106;SDS011;540;49.448;8.612;2022-07-19T11:58:22;4.70;;;1.73;;
1106;SDS011;540;49.448;8.612;2022-07-19T12:00:52;6.00;;;1.75;;
1106;SDS011;540;49.448;8.612;2022-07-19T12:03:26;6.05;;;2.40;;
1106;SDS011;540;49.448;8.612;2022-07-19T12:05:55;2.03;;;1.83;;
1106;SDS011;540;49.448;8.612;2022-07-19T12:08:36;5.03;;;2.03;;
1106;SDS011;540;49.448;8.612;2022-07-19T12:11:18;3.42;;;1.77;;
1106;SDS011;540;49.448;8.612;2022-07-19T12:13:47;5.70;;;1.70;;
1106;SDS011;540;49.448;8.612;2022-07-19T12:16:17;5.05;;;1.88;;
1106;SDS011;540;49.448;8.612;2022-07-19T12:18:48;4.93;;;1.55;;
1106;SDS011;540;49.448;8.612;2022-07-19T12:21:18;4.47;;;1.95;;
1106;SDS011;540;49.448;8.612;2022-07-19T12:26:42;4.43;;;2.13;;
1106;SDS011;540;49.448;8.612;2022-07-19T12:29:21;6.78;;;2.20;;
1106;SDS011;540;49.448;8.612;2022-07-19T12:31:54;4.10;;;2.42;;
1106;SDS011;540;49.448;8.612;2022-07-19T12:34:24;4.05;;;1.90;;
1106;SDS011;540;49.448;8.612;2022-07-19T12:36:52;2.28;;;2.08;;
1106;SDS011;540;49.448;8.612;2022-07-19T12:39:21;6.10;;;2.10;;
1106;SDS011;540;49.448;8.612;2022-07-19T12:41:53;5.45;;;2.25;;
1106;SDS011;540;49.448;8.612;2022-07-19T12:44:21;3.60;;;2.03;;
1106;SDS011;540;49.448;8.612;2022-07-19T12:46:49;4.22;;;1.90;;
1106;SDS011;540;49.448;8.612;2022-07-19T12:49:42;5.75;;;2.20;;
1106;SDS011;540;49.448;8.612;2022-07-19T12:52:10;8.95;;;2.65;;
1106;SDS011;540;49.448;8.612;2022-07-19T12:54:38;3.53;;;2.38;;
1106;SDS011;540;49.448;8.612;2022-07-19T12:57:06;3.38;;;1.88;;
1106;SDS011;540;49.448;8.612;2022-07-19T12:59:34;3.65;;;2.10;;
1106;SDS011;540;49.448;8.612;2022-07-19T13:02:09;4.00;;;2.70;;
1106;SDS011;540;49.448;8.612;2022-07-19T13:04:38;6.30;;;2.20;;
1106;SDS011;540;49.448;8.612;2022-07-19T13:07:08;5.97;;;2.10;;
1106;SDS011;540;49.448;8.612;2022-07-19T13:09:38;5.30;;;2.67;;
1106;SDS011;540;49.448;8.612;2022-07-19T13:12:07;4.03;;;2.00;;
1106;SDS011;540;49.448;8.612;2022-07-19T13:14:36;5.82;;;2.13;;
1106;SDS011;540;49.448;8.612;2022-07-19T13:17:04;4.50;;;1.98;;
1106;SDS011;540;49.448;8.612;2022-07-19T13:19:36;6.10;;;2.60;;
1106;SDS011;540;49.448;8.612;2022-07-19T13:22:05;4.47;;;2.05;;
1106;SDS011;540;49.448;8.612;2022-07-19T13:24:35;6.72;;;2.20;;
1106;SDS011;540;49.448;8.612;2022-07-19T13:27:23;8.90;;;2.20;;
1106;SDS011;540;49.448;8.612;2022-07-19T13:29:51;3.97;;;2.28;;
1106;SDS011;540;49.448;8.612;2022-07-19T13:32:19;3.85;;;2.10;;
1106;SDS011;540;49.448;8.612;2022-07-19T13:34:47;3.65;;;2.25;;
1106;SDS011;540;49.448;8.612;2022-07-19T13:37:16;6.45;;;2.38;;
1106;SDS011;540;49.448;8.612;2022-07-19T13:39:46;3.22;;;2.10;;
1106;SDS011;540;49.448;8.612;2022-07-19T13:42:14;2.97;;;2.25;;
1106;SDS011;540;49.448;8.612;2022-07-19T13:44:42;2.70;;;2.20;;
1106;SDS011;540;49.448;8.612;2022-07-19T13:47:09;3.75;;;2.40;;
1106;SDS011;540;49.448;8.612;2022-07-19T13:49:37;7.22;;;2.40;;
1106;SDS011;540;49.448;8.612;2022-07-19T13:52:05;4.47;;;2.22;;
1106;SDS011;540;49.448;8.612;2022-07-19T13:54:33;7.55;;;2.35;;
1106;SDS011;540;49.448;8.612;2022-07-19T13:57:02;7.32;;;2.50;;
1106;SDS011;540;49.448;8.612;2022-07-19T13:59:30;6.65;;;2.65;;
1106;SDS011;540;49.448;8.612;2022-07-19T14:01:59;7.05;;;2.80;;
1106;SDS011;540;49.448;8.612;2022-07-19T14:04:28;7.57;;;2.83;;
1106;SDS011;540;49.448;8.612;2022-07-19T14:06:56;4.15;;;2.60;;
1106;SDS011;540;49.448;8.612;2022-07-19T14:09:25;11.10;;;2.75;;
1106;SDS011;540;49.448;8.612;2022-07-19T14:11:53;6.72;;;2.50;;
1106;SDS011;540;49.448;8.612;2022-07-19T14:14:22;3.50;;;2.30;;
1106;SDS011;540;49.448;8.612;2022-07-19T14:16:50;4.88;;;2.55;;
1106;SDS011;540;49.448;8.612;2022-07-19T14:19:18;7.18;;;2.60;;
1106;SDS011;540;49.448;8.612;2022-07-19T14:21:46;6.10;;;2.53;;
1106;SDS011;540;49.448;8.612;2022-07-19T14:24:14;5.00;;;2.40;;
1106;SDS011;540;49.448;8.612;2022-07-19T14:26:41;9.23;;;2.92;;
1106;SDS011;540;49.448;8.612;2022-07-19T14:29:09;7.40;;;2.90;;
1106;SDS011;540;49.448;8.612;2022-07-19T14:31:38;4.07;;;2.33;;
1106;SDS011;540;49.448;8.612;2022-07-19T14:34:08;4.80;;;2.70;;
1106;SDS011;540;49.448;8.612;2022-07-19T14:36:56;5.85;;;2.80;;
1106;SDS011;540;49.448;8.612;2022-07-19T14:39:24;12.75;;;2.85;;
1106;SDS011;540;49.448;8.612;2022-07-19T14:41:52;6.60;;;2.83;;
1106;SDS011;540;49.448;8.612;2022-07-19T14:44:21;4.40;;;2.90;;
1106;SDS011;540;49.448;8.612;2022-07-19T14:46:52;9.65;;;3.50;;
1106;SDS011;540;49.448;8.612;2022-07-19T14:49:21;4.30;;;2.50;;
1106;SDS011;540;49.448;8.612;2022-07-19T14:51:49;5.20;;;2.80;;
1106;SDS011;540;49.448;8.612;2022-07-19T14:54:17;8.90;;;2.90;;
1106;SDS011;540;49.448;8.612;2022-07-19T14:56:49;8.63;;;2.80;;
1106;SDS011;540;49.448;8.612;2022-07-19T14:59:17;5.35;;;2.75;;
1106;SDS011;540;49.448;8.612;2022-07-19T15:01:45;7.38;;;2.60;;
1106;SDS011;540;49.448;8.612;2022-07-19T15:04:14;9.43;;;3.22;;
1106;SDS011;540;49.448;8.612;2022-07-19T15:06:43;3.63;;;2.67;;
1106;SDS011;540;49.448;8.612;2022-07-19T15:12:33;5.90;;;3.20;;
1106;SDS011;540;49.448;8.612;2022-07-19T15:15:05;3.13;;;2.67;;
1106;SDS011;540;49.448;8.612;2022-07-19T15:17:39;3.83;;;2.65;;
1106;SDS011;540;49.448;8.612;2022-07-19T15:20:09;5.93;;;2.75;;
1106;SDS011;540;49.448;8.612;2022-07-19T15:22:41;13.38;;;3.17;;
1106;SDS011;540;49.448;8.612;2022-07-19T15:25:09;8.38;;;2.67;;
1106;SDS011;540;49.448;8.612;2022-07-19T15:27:37;5.30;;;3.05;;
1106;SDS011;540;49.448;8.612;2022-07-19T15:30:07;5.32;;;3.08;;
1106;SDS011;540;49.448;8.612;2022-07-19T15:32:35;5.95;;;3.05;;
1106;SDS011;540;49.448;8.612;2022-07-19T15:35:03;7.35;;;2.53;;
1106;SDS011;540;49.448;8.612;2022-07-19T15:37:41;5.38;;;2.45;;
1106;SDS011;540;49.448;8.612;2022-07-19T15:40:09;7.20;;;2.88;;
1106;SDS011;540;49.448;8.612;2022-07-19T15:42:41;9.00;;;3.17;;
1106;SDS011;540;49.448;8.612;2022-07-19T15:45:10;7.22;;;2.85;;
1106;SDS011;540;49.448;8.612;2022-07-19T15:47:38;5.53;;;2.75;;
1106;SDS011;540;49.448;8.612;2022-07-19T15:50:06;8.38;;;3.17;;
1106;SDS011;540;49.448;8.612;2022-07-19T15:52:36;7.45;;;2.97;;
1106;SDS011;540;49.448;8.612;2022-07-19T15:55:08;3.58;;;2.03;;
1106;SDS011;540;49.448;8.612;2022-07-19T15:57:36;7.90;;;2.78;;
1106;SDS011;540;49.448;8.612;2022-07-19T16:00:05;7.00;;;2.70;;